Time;durP1;ratioP1;P1;durP2;ratioP2;P2;SDS_P1;SDS_P2;PMS_P1;PMS_P2;Temp;Humidity;BMP_temperature;BMP_pressure;BME280_temperature;BME280_humidity;BME280_pressure;Samples;Min_cycle;Max_cycle;Signal;HPM_P1;HPM_P2
2024/04/10 00:00:50;;;;;;;3.57;1.30;;;14.90;99.90;;;;;;5528079;25;20450;-65
2024/04/10 00:03:19;;;;;;;9.90;2.10;;;14.90;99.90;;;;;;5527207;25;20488;-65
2024/04/10 00:05:55;;;;;;;5.67;1.30;;;14.90;99.90;;;;;;5527939;25;20687;-65
2024/04/10 00:08:23;;;;;;;2.90;1.20;;;14.90;99.90;;;;;;5528193;25;20514;-65
2024/04/10 00:10:49;;;;;;;1.30;1.10;;;14.80;99.90;;;;;;5527929;25;20500;-65
2024/04/10 00:13:17;;;;;;;2.90;1.37;;;14.80;99.90;;;;;;5527809;25;20491;-65
2024/04/10 00:15:45;;;;;;;3.60;1.60;;;14.90;99.90;;;;;;5527706;25;20213;-65
2024/04/10 00:18:13;;;;;;;2.47;1.53;;;14.70;99.90;;;;;;5527742;25;20499;-65
2024/04/10 00:20:46;;;;;;;5.70;1.67;;;14.70;99.90;;;;;;5527465;25;20447;-65
2024/04/10 00:23:15;;;;;;;2.30;1.40;;;14.60;99.90;;;;;;5527678;25;20455;-65
2024/04/10 00:25:40;;;;;;;2.60;1.40;;;14.70;99.90;;;;;;5527580;25;20773;-65
2024/04/10 00:28:08;;;;;;;3.10;1.17;;;14.50;99.90;;;;;;5527606;25;20489;-65
2024/04/10 00:30:35;;;;;;;3.57;2.27;;;14.60;99.90;;;;;;5527605;25;20234;-65
2024/04/10 00:33:06;;;;;;;3.97;1.30;;;14.60;99.90;;;;;;5527415;25;21084;-65
2024/04/10 00:35:32;;;;;;;3.53;1.30;;;14.60;99.90;;;;;;5527465;25;20505;-66
2024/04/10 00:38:00;;;;;;;3.83;1.67;;;14.50;99.90;;;;;;5527414;25;20451;-65
2024/04/10 00:40:26;;;;;;;6.97;1.60;;;14.60;99.90;;;;;;5527401;25;20215;-66
2024/04/10 00:42:54;;;;;;;4.10;1.20;;;14.50;99.90;;;;;;5527388;25;21024;-66
2024/04/10 00:45:21;;;;;;;5.53;1.33;;;14.40;99.90;;;;;;5527404;25;20440;-65
2024/04/10 00:47:49;;;;;;;2.07;1.20;;;14.50;99.90;;;;;;5527278;25;20445;-65
2024/04/10 00:50:17;;;;;;;4.20;1.73;;;14.50;99.90;;;;;;5527266;25;20963;-66
2024/04/10 00:52:45;;;;;;;1.90;1.47;;;14.60;99.90;;;;;;5527102;25;20772;-66
2024/04/10 00:55:15;;;;;;;4.10;1.47;;;14.50;99.90;;;;;;5527228;25;20457;-65
2024/04/10 00:57:43;;;;;;;5.13;1.40;;;14.60;99.90;;;;;;5527162;25;20457;-65
2024/04/10 01:00:10;;;;;;;4.13;1.67;;;14.50;99.90;;;;;;5526988;25;20448;-65
2024/04/10 01:02:38;;;;;;;4.67;1.60;;;14.20;99.90;;;;;;5527111;25;20565;-65
2024/04/10 01:05:04;;;;;;;7.73;1.57;;;14.20;99.90;;;;;;5527146;25;20455;-66
2024/04/10 01:07:35;;;;;;;6.80;1.60;;;14.10;99.90;;;;;;5527070;25;20449;-66
2024/04/10 01:10:00;;;;;;;2.60;1.20;;;14.20;99.90;;;;;;5526994;25;20826;-65
2024/04/10 01:12:30;;;;;;;2.90;1.60;;;14.20;99.90;;;;;;5526938;25;20442;-66
2024/04/10 01:14:56;;;;;;;3.57;1.30;;;14.00;99.90;;;;;;5525745;25;20213;-65
2024/04/10 01:17:24;;;;;;;2.87;1.50;;;14.10;99.90;;;;;;5526592;25;20842;-65
2024/04/10 01:19:49;;;;;;;4.13;1.83;;;13.90;99.90;;;;;;5526825;25;20210;-66
2024/04/10 01:22:17;;;;;;;2.70;1.40;;;13.80;99.90;;;;;;5526967;25;20497;-65
2024/04/10 01:24:45;;;;;;;4.30;1.80;;;13.80;99.90;;;;;;5526781;25;20522;-65
2024/04/10 01:27:14;;;;;;;4.80;1.70;;;13.80;99.90;;;;;;5526608;25;20557;-65
2024/04/10 01:29:39;;;;;;;6.07;1.77;;;13.90;99.90;;;;;;5526750;25;20490;-65
2024/04/10 01:32:08;;;;;;;2.80;1.80;;;13.80;99.90;;;;;;5526627;25;20459;-65
2024/04/10 01:34:33;;;;;;;3.77;2.57;;;13.80;99.90;;;;;;5526583;25;20207;-65
2024/04/10 01:37:01;;;;;;;2.50;1.70;;;13.90;99.90;;;;;;5526708;25;20495;-65
2024/04/10 01:39:27;;;;;;;2.60;1.73;;;14.00;99.90;;;;;;5526507;25;20219;-65
2024/04/10 01:41:58;;;;;;;4.90;2.07;;;13.90;99.90;;;;;;5526589;25;20499;-65
2024/04/10 01:44:23;;;;;;;4.30;1.97;;;13.90;99.90;;;;;;5526402;25;20576;-64
2024/04/10 01:46:52;;;;;;;5.73;2.90;;;13.90;99.90;;;;;;5526511;25;20442;-65
2024/04/10 01:49:17;;;;;;;4.03;1.87;;;13.90;99.90;;;;;;5526756;25;20528;-65
2024/04/10 01:51:46;;;;;;;3.40;2.07;;;13.90;99.90;;;;;;5526405;25;20490;-65
2024/04/10 01:54:13;;;;;;;2.37;1.60;;;13.90;99.90;;;;;;5526301;25;20221;-65
2024/04/10 01:56:41;;;;;;;2.30;1.77;;;13.90;99.90;;;;;;5526393;25;20822;-65
2024/04/10 01:59:09;;;;;;;2.07;1.93;;;13.80;99.90;;;;;;5526232;25;20458;-65
2024/04/10 02:01:37;;;;;;;4.67;1.67;;;13.80;99.90;;;;;;5526069;25;20801;-65
2024/04/10 02:04:03;;;;;;;2.77;1.60;;;13.90;99.90;;;;;;5526208;25;20447;-65
2024/04/10 02:06:31;;;;;;;3.00;1.90;;;14.00;99.90;;;;;;5526104;25;21021;-65
2024/04/10 02:08:57;;;;;;;4.63;2.40;;;14.00;99.90;;;;;;5526101;25;20439;-65
2024/04/10 02:11:26;;;;;;;2.83;2.50;;;14.00;99.90;;;;;;5526166;25;20450;-65
2024/04/10 02:13:52;;;;;;;4.80;1.73;;;13.90;99.90;;;;;;5525814;25;20698;-65
2024/04/10 02:16:24;;;;;;;3.33;1.93;;;13.90;99.90;;;;;;5526001;25;20446;-65
2024/04/10 02:18:50;;;;;;;3.20;2.10;;;13.70;99.90;;;;;;5525928;25;20484;-65
2024/04/10 02:21:18;;;;;;;2.40;1.80;;;13.80;99.90;;;;;;5525634;25;20437;-65
2024/04/10 02:23:44;;;;;;;1.77;1.63;;;13.80;99.90;;;;;;5525739;25;20247;-65
2024/04/10 02:26:12;;;;;;;3.07;2.30;;;13.90;99.90;;;;;;5525911;25;20454;-65
2024/04/10 02:28:38;;;;;;;3.90;2.47;;;13.90;99.90;;;;;;5529340;25;20213;-65
2024/04/10 02:31:07;;;;;;;2.60;1.63;;;13.90;99.90;;;;;;5529248;25;21008;-65
2024/04/10 02:33:37;;;;;;;2.70;1.87;;;14.00;99.90;;;;;;5529440;25;20450;-65
2024/04/10 02:36:06;;;;;;;2.07;1.60;;;13.90;99.90;;;;;;5529267;25;20448;-65
2024/04/10 02:38:32;;;;;;;2.17;1.73;;;14.00;99.90;;;;;;5529235;25;20487;-65
2024/04/10 02:41:01;;;;;;;4.00;2.10;;;14.00;99.90;;;;;;5529140;25;20564;-65
2024/04/10 02:43:26;;;;;;;5.20;1.90;;;14.00;99.90;;;;;;5529196;25;20490;-65
2024/04/10 02:45:58;;;;;;;5.30;2.07;;;14.00;99.90;;;;;;5529161;25;20447;-65
2024/04/10 02:48:24;;;;;;;3.57;1.97;;;13.90;99.90;;;;;;5529014;25;20213;-65
2024/04/10 02:50:56;;;;;;;3.87;2.20;;;14.00;99.90;;;;;;5528997;25;20501;-65
2024/04/10 02:53:22;;;;;;;3.00;1.90;;;14.00;99.90;;;;;;5528850;25;20454;-65
2024/04/10 02:55:51;;;;;;;2.80;1.63;;;14.00;99.90;;;;;;5528881;25;20445;-65
2024/04/10 02:58:17;;;;;;;2.30;1.60;;;14.00;99.90;;;;;;5528905;25;20446;-65
2024/04/10 03:00:46;;;;;;;1.63;1.53;;;14.00;99.90;;;;;;5528747;25;20830;-65
2024/04/10 03:03:12;;;;;;;1.67;1.53;;;13.90;99.90;;;;;;5528775;25;20494;-65
2024/04/10 03:05:41;;;;;;;3.70;2.00;;;13.80;99.90;;;;;;5528867;25;20441;-65
2024/04/10 03:08:10;;;;;;;3.90;2.03;;;13.80;99.90;;;;;;5528853;25;20223;-66
2024/04/10 03:10:38;;;;;;;2.30;2.10;;;13.80;99.90;;;;;;5528582;25;20559;-66
2024/04/10 03:13:04;;;;;;;7.53;2.20;;;13.80;99.90;;;;;;5528645;25;20453;-66
2024/04/10 03:15:33;;;;;;;2.77;1.80;;;13.70;99.90;;;;;;5528605;25;20983;-66
2024/04/10 03:17:59;;;;;;;8.20;2.33;;;13.70;99.90;;;;;;5528684;25;20989;-65
2024/04/10 03:20:27;;;;;;;3.47;2.10;;;13.80;99.90;;;;;;5528457;25;20556;-66
2024/04/10 03:22:53;;;;;;;3.50;2.20;;;13.70;99.90;;;;;;5528527;25;20209;-66
2024/04/10 03:25:23;;;;;;;6.33;2.93;;;13.70;99.90;;;;;;5528503;25;20492;-66
2024/04/10 03:27:50;;;;;;;3.70;2.00;;;13.80;99.90;;;;;;5528389;25;20247;-65
2024/04/10 03:30:18;;;;;;;4.97;2.30;;;13.80;99.90;;;;;;5528250;25;20838;-65
2024/04/10 03:32:43;;;;;;;2.50;2.30;;;13.80;99.90;;;;;;5528266;25;20817;-66
2024/04/10 03:35:11;;;;;;;6.57;2.63;;;13.80;99.90;;;;;;5528609;25;20455;-66
2024/04/10 03:37:37;;;;;;;2.90;2.57;;;13.70;99.90;;;;;;5528039;25;20217;-66
2024/04/10 03:40:06;;;;;;;2.47;2.10;;;13.50;99.90;;;;;;5527393;25;20495;-66
2024/04/10 03:42:37;;;;;;;3.03;2.43;;;13.60;99.90;;;;;;5528042;25;20209;-65
2024/04/10 03:45:05;;;;;;;3.60;2.57;;;13.60;99.90;;;;;;5528249;25;21005;-66
2024/04/10 03:47:34;;;;;;;4.90;2.07;;;13.70;99.90;;;;;;5528156;25;20438;-66
2024/04/10 03:50:02;;;;;;;4.47;2.17;;;13.80;99.90;;;;;;5528161;25;20953;-65
2024/04/10 03:52:30;;;;;;;7.10;2.33;;;13.80;99.90;;;;;;5527876;25;20994;-66
2024/04/10 03:54:56;;;;;;;5.60;3.67;;;13.80;99.90;;;;;;5528078;25;20869;-66
2024/04/10 03:57:24;;;;;;;2.77;2.43;;;13.80;99.90;;;;;;5527983;25;20501;-66
2024/04/10 03:59:52;;;;;;;3.30;2.20;;;13.80;99.90;;;;;;5527996;25;20217;-66
2024/04/10 04:02:20;;;;;;;4.20;2.37;;;13.70;99.90;;;;;;5527830;25;20529;-66
2024/04/10 04:04:46;;;;;;;3.83;2.23;;;13.70;99.90;;;;;;5528186;25;20480;-66
2024/04/10 04:07:15;;;;;;;2.83;2.60;;;13.70;99.90;;;;;;5527881;25;20460;-66
2024/04/10 04:09:41;;;;;;;3.10;2.20;;;13.70;99.90;;;;;;5527705;25;20251;-66
2024/04/10 04:12:09;;;;;;;5.87;2.90;;;13.70;99.90;;;;;;5527755;25;20450;-66
2024/04/10 04:14:35;;;;;;;3.00;2.60;;;13.70;99.90;;;;;;5527815;25;20665;-66
2024/04/10 04:17:06;;;;;;;4.63;2.37;;;13.70;99.90;;;;;;5527987;25;20458;-66
2024/04/10 04:19:31;;;;;;;5.90;2.50;;;13.70;99.90;;;;;;5527772;25;20204;-65
2024/04/10 04:21:59;;;;;;;2.93;2.33;;;13.70;99.90;;;;;;5527545;25;21007;-66
2024/04/10 04:24:25;;;;;;;4.00;2.50;;;13.70;99.90;;;;;;5527541;25;20244;-66
2024/04/10 04:26:53;;;;;;;3.30;2.40;;;13.70;99.90;;;;;;5527831;25;20513;-66
2024/04/10 04:29:19;;;;;;;4.20;2.73;;;13.50;99.90;;;;;;5527813;25;20213;-66
2024/04/10 04:31:50;;;;;;;3.20;2.00;;;13.50;99.90;;;;;;5527569;25;20501;-65
2024/04/10 04:34:18;;;;;;;7.33;3.80;;;13.60;99.90;;;;;;5527532;25;20206;-66
2024/04/10 04:36:46;;;;;;;4.70;2.50;;;13.60;99.90;;;;;;5527295;25;20503;-66
2024/04/10 04:39:13;;;;;;;3.60;2.40;;;13.60;99.90;;;;;;5527492;25;21018;-66
2024/04/10 04:41:41;;;;;;;4.90;2.20;;;13.70;99.90;;;;;;5527239;25;20493;-66
2024/04/10 04:44:07;;;;;;;3.77;2.33;;;13.70;99.90;;;;;;5527277;25;20547;-66
2024/04/10 04:46:35;;;;;;;4.30;2.33;;;13.80;99.90;;;;;;5527245;25;20463;-66
2024/04/10 04:49:01;;;;;;;3.67;2.20;;;13.80;99.90;;;;;;5527299;25;20439;-66
2024/04/10 04:51:32;;;;;;;2.87;2.07;;;13.80;99.90;;;;;;5527049;25;20833;-65
2024/04/10 04:53:58;;;;;;;3.20;2.23;;;13.80;99.90;;;;;;5527209;25;20557;-66
2024/04/10 04:56:26;;;;;;;4.80;2.93;;;13.60;99.90;;;;;;5527128;25;20478;-66
2024/04/10 04:58:52;;;;;;;4.30;2.30;;;13.70;99.90;;;;;;5527059;25;20450;-66
2024/04/10 05:01:21;;;;;;;3.90;2.27;;;13.70;99.90;;;;;;5526884;25;20494;-66
2024/04/10 05:06:36;;;;;;;3.00;2.10;;;13.60;99.90;;;;;;5530005;25;20478;-66
2024/04/10 05:09:04;;;;;;;5.13;1.93;;;13.70;99.90;;;;;;5526883;25;20491;-66
2024/04/10 05:11:32;;;;;;;3.43;2.40;;;13.70;99.90;;;;;;5527013;25;20442;-66
2024/04/10 05:13:58;;;;;;;4.23;2.50;;;13.80;99.90;;;;;;5526956;25;20498;-66
2024/04/10 05:16:26;;;;;;;4.40;2.07;;;13.70;99.90;;;;;;5526778;25;20463;-66
2024/04/10 05:18:52;;;;;;;2.80;1.63;;;13.70;99.90;;;;;;5526921;25;20557;-66
2024/04/10 05:21:20;;;;;;;4.73;2.20;;;13.70;99.90;;;;;;5526509;25;20450;-66
2024/04/10 05:23:48;;;;;;;4.03;2.30;;;13.70;99.90;;;;;;5526709;25;20673;-66
2024/04/10 05:26:16;;;;;;;2.43;2.00;;;13.70;99.90;;;;;;5526528;25;20560;-66
2024/04/10 05:28:42;;;;;;;3.60;2.50;;;13.70;99.90;;;;;;5526551;25;20446;-66
2024/04/10 05:31:11;;;;;;;7.53;2.40;;;13.60;99.90;;;;;;5526432;25;20443;-66
2024/04/10 05:33:37;;;;;;;4.23;2.07;;;13.70;99.90;;;;;;5526484;25;20444;-65
2024/04/10 05:36:06;;;;;;;2.20;1.90;;;13.80;99.90;;;;;;5526686;25;20495;-66
2024/04/10 05:38:32;;;;;;;2.23;2.07;;;13.80;99.90;;;;;;5526439;25;20207;-65
2024/04/10 05:41:03;;;;;;;2.33;1.77;;;13.90;99.90;;;;;;5526171;25;20494;-65
2024/04/10 05:43:29;;;;;;;4.60;2.47;;;13.90;99.90;;;;;;5526207;25;20494;-65
2024/04/10 05:45:58;;;;;;;2.80;2.03;;;13.90;99.90;;;;;;5526481;25;20809;-65
2024/04/10 05:48:24;;;;;;;4.23;2.10;;;14.00;99.90;;;;;;5526233;25;21076;-66
2024/04/10 05:50:58;;;;;;;4.50;1.90;;;14.00;99.90;;;;;;5526296;25;20449;-65
2024/04/10 05:53:24;;;;;;;5.23;2.20;;;14.10;99.90;;;;;;5526032;25;20660;-65
2024/04/10 05:55:52;;;;;;;3.67;1.80;;;14.10;99.90;;;;;;5526086;25;20493;-66
2024/04/10 05:58:21;;;;;;;6.57;1.90;;;14.30;99.90;;;;;;5525667;25;20253;-66
2024/04/10 06:00:49;;;;;;;3.50;2.30;;;14.30;99.90;;;;;;5525440;25;20944;-66
2024/04/10 06:03:14;;;;;;;4.03;1.80;;;14.40;99.90;;;;;;5525176;25;20482;-66
2024/04/10 06:05:43;;;;;;;5.80;2.07;;;14.50;99.90;;;;;;5525937;25;20456;-65
2024/04/10 06:08:08;;;;;;;2.70;1.83;;;14.60;99.90;;;;;;5525940;25;20215;-66
2024/04/10 06:10:36;;;;;;;7.40;3.47;;;14.60;99.90;;;;;;5525753;25;20502;-66
2024/04/10 06:13:02;;;;;;;3.73;2.07;;;14.60;99.90;;;;;;5525824;25;20216;-65
2024/04/10 06:15:33;;;;;;;6.67;2.10;;;14.70;99.90;;;;;;5525695;25;20498;-66
2024/04/10 06:17:58;;;;;;;2.40;1.60;;;14.60;99.90;;;;;;5525241;25;20220;-65
2024/04/10 06:20:26;;;;;;;2.50;1.73;;;14.60;99.90;;;;;;5525476;25;20444;-65
2024/04/10 06:22:52;;;;;;;2.60;1.90;;;14.70;99.90;;;;;;5525383;25;20253;-66
2024/04/10 06:25:20;;;;;;;5.33;1.90;;;14.70;99.90;;;;;;5525849;25;20451;-66
2024/04/10 06:27:46;;;;;;;3.77;2.00;;;14.70;99.90;;;;;;5525724;25;20255;-66
2024/04/10 06:30:15;;;;;;;6.90;2.80;;;14.80;99.90;;;;;;5525510;25;20461;-66
2024/04/10 06:32:43;;;;;;;6.47;2.40;;;14.90;99.90;;;;;;5530022;25;20242;-66
2024/04/10 06:35:12;;;;;;;3.53;2.30;;;14.80;99.90;;;;;;5534565;25;20457;-66
2024/04/10 06:37:38;;;;;;;5.33;2.30;;;14.90;99.90;;;;;;5525141;26;20437;-67
2024/04/10 06:40:07;;;;;;;3.00;1.87;;;15.00;99.90;;;;;;5548213;25;20563;-66
2024/04/10 06:42:33;;;;;;;4.10;2.03;;;15.00;99.90;;;;;;5540765;25;20222;-65
2024/04/10 06:45:01;;;;;;;4.30;2.67;;;15.00;99.90;;;;;;5542221;25;20466;-66
2024/04/10 06:47:26;;;;;;;5.97;2.80;;;14.90;99.90;;;;;;5538351;25;20727;-68
2024/04/10 06:49:57;;;;;;;10.17;2.77;;;14.70;99.90;;;;;;5540931;25;20477;-67
2024/04/10 06:52:23;;;;;;;4.07;2.50;;;14.60;99.90;;;;;;5540775;25;20224;-66
2024/04/10 06:54:51;;;;;;;3.03;2.60;;;14.50;99.90;;;;;;5540323;25;20511;-67
2024/04/10 06:57:16;;;;;;;3.27;2.70;;;14.50;99.90;;;;;;5536769;25;20264;-66
2024/04/10 06:59:45;;;;;;;5.30;3.13;;;14.60;99.90;;;;;;5540258;25;20809;-66
2024/04/10 07:02:10;;;;;;;4.17;2.77;;;14.50;99.90;;;;;;5539110;25;20260;-67
2024/04/10 07:04:38;;;;;;;4.60;2.70;;;14.30;99.90;;;;;;5539997;25;21011;-67
2024/04/10 07:07:06;;;;;;;4.23;2.50;;;14.30;99.90;;;;;;5538945;25;20254;-66
2024/04/10 07:09:35;;;;;;;5.50;2.70;;;14.40;99.90;;;;;;5538711;25;20523;-69
2024/04/10 07:12:01;;;;;;;4.87;2.77;;;14.50;99.90;;;;;;5537401;25;20861;-66
2024/04/10 07:14:34;;;;;;;4.63;2.83;;;14.50;99.90;;;;;;5538000;25;20512;-65
2024/04/10 07:16:59;;;;;;;4.57;2.57;;;14.40;99.90;;;;;;5540121;25;20457;-64
2024/04/10 07:19:31;;;;;;;3.83;2.87;;;14.30;99.90;;;;;;5541777;25;20540;-67
2024/04/10 07:21:57;;;;;;;2.70;2.47;;;14.40;99.90;;;;;;5558729;25;20226;-61
2024/04/10 07:24:27;;;;;;;5.23;3.40;;;14.50;99.90;;;;;;5565571;25;20741;-66
2024/04/10 07:26:53;;;;;;;4.20;2.73;;;14.60;99.90;;;;;;5565507;25;20221;-65
2024/04/10 07:29:21;;;;;;;5.17;2.80;;;14.60;99.90;;;;;;5565453;25;20488;-72
2024/04/10 07:31:46;;;;;;;6.07;3.40;;;14.70;99.90;;;;;;5565174;25;20238;-69
2024/04/10 07:34:17;;;;;;;12.40;3.30;;;14.70;99.90;;;;;;5565690;25;20465;-67
2024/04/10 07:36:43;;;;;;;3.53;2.10;;;14.70;99.90;;;;;;5565308;25;20330;-66
2024/04/10 07:39:11;;;;;;;3.80;2.27;;;14.80;99.90;;;;;;5565244;25;20453;-65
2024/04/10 07:41:40;;;;;;;4.53;2.30;;;14.80;99.90;;;;;;5564947;25;20441;-66
2024/04/10 07:44:08;;;;;;;3.60;2.37;;;14.80;99.90;;;;;;5564942;25;20445;-62
2024/04/10 07:46:34;;;;;;;3.30;2.40;;;14.80;99.90;;;;;;5564962;25;20493;-65
2024/04/10 07:49:02;;;;;;;2.70;2.30;;;14.80;99.90;;;;;;5564965;25;20450;-65
2024/04/10 07:51:28;;;;;;;6.07;2.43;;;15.00;99.90;;;;;;5564770;25;20677;-65
2024/04/10 07:53:56;;;;;;;4.13;2.07;;;15.10;99.90;;;;;;5564809;25;20509;-65
2024/04/10 07:56:22;;;;;;;4.10;2.20;;;15.20;99.90;;;;;;5565012;25;20211;-65
2024/04/10 07:58:53;;;;;;;2.03;1.70;;;15.20;99.90;;;;;;5565148;25;21000;-69
2024/04/10 08:01:19;;;;;;;2.40;1.97;;;15.30;99.90;;;;;;5564659;25;20233;-64
2024/04/10 08:03:47;;;;;;;3.87;2.30;;;15.40;99.90;;;;;;5562783;25;20447;-64
2024/04/10 08:06:13;;;;;;;4.20;2.00;;;15.40;99.90;;;;;;5560750;25;20447;-64
2024/04/10 08:08:42;;;;;;;2.83;2.00;;;15.20;99.90;;;;;;5564848;25;20445;-64
2024/04/10 08:11:11;;;;;;;7.07;3.93;;;15.00;99.90;;;;;;5564947;25;20771;-64
2024/04/10 08:13:40;;;;;;;3.00;2.10;;;15.10;99.90;;;;;;5564244;25;20446;-64
2024/04/10 08:16:11;;;;;;;4.00;2.80;;;15.00;99.90;;;;;;5564736;25;20454;-65
2024/04/10 08:18:40;;;;;;;5.17;3.00;;;15.10;99.90;;;;;;5564835;25;20462;-65
2024/04/10 08:21:07;;;;;;;4.30;2.33;;;15.10;99.90;;;;;;5564691;25;21028;-64
2024/04/10 08:23:37;;;;;;;3.40;2.90;;;15.10;99.90;;;;;;5565083;25;20446;-65
2024/04/10 08:26:09;;;;;;;5.30;3.00;;;15.20;99.90;;;;;;5563606;25;20437;-64
2024/04/10 08:28:40;;;;;;;8.50;2.87;;;15.10;99.90;;;;;;5564529;25;20558;-65
2024/04/10 08:31:08;;;;;;;4.73;2.37;;;15.10;99.90;;;;;;5564633;25;20488;-64
2024/04/10 08:33:36;;;;;;;2.80;2.57;;;15.20;99.90;;;;;;5564557;25;20494;-64
2024/04/10 08:36:02;;;;;;;4.03;2.83;;;15.30;99.90;;;;;;5564636;25;20451;-65
2024/04/10 08:38:31;;;;;;;4.87;2.97;;;15.20;99.90;;;;;;5564546;25;20437;-65
2024/04/10 08:40:58;;;;;;;4.93;2.83;;;15.20;99.90;;;;;;5564396;25;20477;-65
2024/04/10 08:43:31;;;;;;;5.27;3.00;;;15.20;99.90;;;;;;5564436;25;20459;-65
2024/04/10 08:45:57;;;;;;;5.03;3.20;;;15.20;99.90;;;;;;5564438;25;21029;-65
2024/04/10 08:48:29;;;;;;;3.77;3.37;;;15.30;99.90;;;;;;5564239;25;20458;-65
2024/04/10 08:50:59;;;;;;;5.47;2.67;;;15.40;99.90;;;;;;5564350;25;20212;-65
2024/04/10 08:53:30;;;;;;;4.87;3.00;;;15.60;99.90;;;;;;5564189;25;20459;-64
2024/04/10 08:55:55;;;;;;;4.93;2.67;;;15.80;99.90;;;;;;5564408;25;20469;-64
2024/04/10 08:58:24;;;;;;;5.63;3.10;;;15.80;99.90;;;;;;5564425;25;20565;-64
2024/04/10 09:00:49;;;;;;;4.63;3.40;;;15.80;99.90;;;;;;5564104;25;20450;-65
2024/04/10 09:03:17;;;;;;;9.33;3.13;;;15.90;99.90;;;;;;5564371;25;20502;-66
2024/04/10 09:05:46;;;;;;;4.50;2.90;;;15.90;99.90;;;;;;5564280;25;20339;-66
2024/04/10 09:08:14;;;;;;;4.07;2.53;;;16.10;99.90;;;;;;5564336;25;20454;-66
2024/04/10 09:10:40;;;;;;;5.00;2.30;;;16.10;99.90;;;;;;5564034;25;21007;-66
2024/04/10 09:13:10;;;;;;;6.13;2.63;;;16.20;99.90;;;;;;5564232;25;20446;-65
2024/04/10 09:15:36;;;;;;;5.50;3.17;;;16.20;99.90;;;;;;5564080;25;20298;-66
2024/04/10 09:18:05;;;;;;;4.93;2.80;;;16.30;99.90;;;;;;5564053;25;20492;-66
2024/04/10 09:20:30;;;;;;;4.40;2.07;;;16.00;99.90;;;;;;5564102;25;20447;-66
2024/04/10 09:23:06;;;;;;;1.83;1.70;;;16.00;99.90;;;;;;5563911;25;20444;-65
2024/04/10 09:25:32;;;;;;;5.73;2.77;;;15.90;99.90;;;;;;5563914;25;20270;-66
2024/04/10 09:28:02;;;;;;;4.50;2.47;;;15.90;99.90;;;;;;5563934;25;20455;-65
2024/04/10 09:30:28;;;;;;;3.23;1.90;;;16.10;99.90;;;;;;5563925;25;20443;-66
2024/04/10 09:32:57;;;;;;;5.27;1.83;;;16.10;99.90;;;;;;5564050;25;20566;-66
2024/04/10 09:35:25;;;;;;;4.30;2.10;;;16.00;99.90;;;;;;5563827;25;20215;-65
2024/04/10 09:37:55;;;;;;;2.40;2.20;;;16.10;99.90;;;;;;5562553;25;20444;-65
2024/04/10 09:40:25;;;;;;;5.67;2.27;;;16.20;99.90;;;;;;5563583;25;20489;-65
2024/04/10 09:43:00;;;;;;;3.67;1.60;;;16.00;99.90;;;;;;5563563;25;21003;-65
2024/04/10 09:45:32;;;;;;;2.50;1.50;;;16.10;99.90;;;;;;5563501;25;20939;-64
2024/04/10 09:48:06;;;;;;;2.03;1.40;;;16.10;99.90;;;;;;5563906;25;20451;-64
2024/04/10 09:50:38;;;;;;;6.90;2.13;;;16.20;99.90;;;;;;5563722;25;20439;-64
2024/04/10 09:53:04;;;;;;;3.43;1.57;;;16.00;99.90;;;;;;5563504;25;20564;-66
2024/04/10 09:56:47;;;;;;;3.60;1.63;;;16.20;99.90;;;;;;5507969;25;20549;-66
2024/04/10 09:59:15;;;;;;;3.90;1.57;;;16.20;99.90;;;;;;5508260;25;20454;-66
2024/04/10 10:01:43;;;;;;;2.40;1.50;;;16.10;99.90;;;;;;5508363;25;20856;-66
2024/04/10 10:04:09;;;;;;;5.70;1.90;;;15.90;99.90;;;;;;5508201;25;21023;-66
2024/04/10 10:06:37;;;;;;;4.17;1.77;;;15.90;99.90;;;;;;5508146;25;20885;-66
2024/04/10 10:09:03;;;;;;;1.77;1.43;;;15.90;99.90;;;;;;5507885;25;20446;-66
2024/04/10 10:11:31;;;;;;;4.23;1.50;;;16.10;99.90;;;;;;5507775;25;20825;-66
2024/04/10 10:14:02;;;;;;;2.30;1.30;;;16.30;99.90;;;;;;5507766;25;20625;-66
2024/04/10 10:16:31;;;;;;;2.03;1.23;;;16.50;99.90;;;;;;5507382;25;21063;-70
2024/04/10 10:18:59;;;;;;;3.43;1.57;;;16.70;99.90;;;;;;5507776;25;20461;-67
2024/04/10 10:21:28;;;;;;;3.37;1.30;;;16.90;99.90;;;;;;5507445;25;20795;-66
2024/04/10 10:23:58;;;;;;;3.00;1.20;;;16.80;99.90;;;;;;5507427;25;20502;-67
2024/04/10 10:26:27;;;;;;;3.00;1.20;;;16.70;99.90;;;;;;5507344;25;20776;-66
2024/04/10 10:29:03;;;;;;;1.60;1.30;;;16.80;99.90;;;;;;5507769;25;20495;-65
2024/04/10 10:31:31;;;;;;;4.83;1.37;;;16.70;99.90;;;;;;5507620;25;20981;-68
2024/04/10 10:34:01;;;;;;;2.60;1.57;;;16.50;99.90;;;;;;5507110;25;20442;-64
2024/04/10 10:36:33;;;;;;;1.90;1.30;;;16.40;99.90;;;;;;5507274;25;20461;-64
2024/04/10 10:39:04;;;;;;;2.20;1.10;;;16.40;99.90;;;;;;5507182;25;20483;-69
2024/04/10 10:41:33;;;;;;;5.50;1.40;;;16.30;99.90;;;;;;5507321;25;20555;-67
2024/04/10 10:43:59;;;;;;;3.73;1.37;;;16.20;99.90;;;;;;5507465;25;21005;-66
2024/04/10 10:46:30;;;;;;;2.70;1.30;;;16.10;99.90;;;;;;5507246;25;20488;-64
2024/04/10 10:48:55;;;;;;;2.00;1.10;;;16.00;99.90;;;;;;5507303;25;20495;-66
2024/04/10 10:51:24;;;;;;;2.80;1.40;;;16.20;99.90;;;;;;5507044;25;20446;-63
2024/04/10 10:53:50;;;;;;;3.10;1.30;;;16.60;99.90;;;;;;5507414;25;20214;-66
2024/04/10 10:56:25;;;;;;;5.63;1.67;;;16.60;99.90;;;;;;5507126;25;20477;-65
2024/04/10 10:58:51;;;;;;;2.00;1.30;;;16.60;99.90;;;;;;5507154;25;20822;-65
2024/04/10 11:01:20;;;;;;;2.90;1.70;;;16.50;99.90;;;;;;5506983;25;20454;-65
2024/04/10 11:03:48;;;;;;;1.83;1.00;;;16.50;99.90;;;;;;5506950;25;20206;-65
2024/04/10 11:06:16;;;;;;;2.73;1.13;;;16.50;99.90;;;;;;5502239;25;20843;-65
2024/04/10 11:08:42;;;;;;;1.47;1.27;;;16.80;99.90;;;;;;5490992;26;20483;-66
2024/04/10 11:11:15;;;;;;;2.50;1.30;;;16.90;99.90;;;;;;5491337;26;20459;-66
2024/04/10 11:13:50;;;;;;;1.90;1.27;;;17.10;99.90;;;;;;5491007;26;20233;-64
2024/04/10 11:16:29;;;;;;;2.97;1.10;;;17.10;99.90;;;;;;5490960;26;20450;-66
2024/04/10 11:18:57;;;;;;;1.20;0.90;;;17.00;99.90;;;;;;5491179;26;20446;-62
2024/04/10 11:21:25;;;;;;;2.47;1.23;;;17.30;99.90;;;;;;5490820;26;20462;-63
2024/04/10 11:23:51;;;;;;;3.83;1.67;;;17.50;99.90;;;;;;5490713;26;21039;-64
2024/04/10 11:26:19;;;;;;;5.73;1.43;;;17.40;99.90;;;;;;5490859;26;20499;-64
2024/04/10 11:28:45;;;;;;;2.23;1.20;;;17.20;99.90;;;;;;5490812;26;20249;-63
2024/04/10 11:31:15;;;;;;;2.40;1.30;;;17.20;99.90;;;;;;5490872;26;20455;-63
2024/04/10 11:33:40;;;;;;;3.40;1.50;;;17.30;99.90;;;;;;5490674;26;20266;-62
2024/04/10 11:36:11;;;;;;;1.80;1.17;;;17.60;99.90;;;;;;5490678;26;20458;-62
2024/04/10 11:38:37;;;;;;;2.10;1.03;;;17.70;99.90;;;;;;5490645;26;20210;-62
2024/04/10 11:41:07;;;;;;;3.93;1.30;;;17.60;99.90;;;;;;5490728;26;20559;-62
2024/04/10 11:43:33;;;;;;;1.80;1.20;;;17.80;99.90;;;;;;5490466;26;20451;-62
2024/04/10 11:46:02;;;;;;;3.70;1.20;;;17.90;99.90;;;;;;5491203;26;21019;-63
2024/04/10 11:48:47;;;;;;;3.47;1.30;;;17.60;99.90;;;;;;5490431;26;20218;-65
2024/04/10 11:51:18;;;;;;;4.00;0.90;;;17.50;99.90;;;;;;5490382;26;21063;-65
2024/04/10 11:53:43;;;;;;;2.23;0.90;;;17.50;99.90;;;;;;5490425;26;20442;-64
2024/04/10 11:56:11;;;;;;;2.07;0.90;;;17.60;99.90;;;;;;5490544;26;20510;-65
2024/04/10 11:58:40;;;;;;;2.50;1.07;;;17.70;99.90;;;;;;5490370;26;20535;-69
2024/04/10 12:01:08;;;;;;;1.40;0.97;;;17.60;99.90;;;;;;5490630;26;20498;-65
2024/04/10 12:03:34;;;;;;;1.40;0.77;;;17.50;99.90;;;;;;5490320;26;20454;-69
2024/04/10 12:06:04;;;;;;;3.53;1.20;;;17.60;99.90;;;;;;5490481;26;20455;-63
2024/04/10 12:08:32;;;;;;;1.10;1.00;;;17.60;99.90;;;;;;5490342;26;20486;-63
2024/04/10 12:11:01;;;;;;;1.97;1.10;;;17.70;99.90;;;;;;5490325;26;20583;-70
2024/04/10 12:13:27;;;;;;;3.90;0.90;;;17.90;99.90;;;;;;5490401;26;20446;-65
2024/04/10 12:15:55;;;;;;;1.30;1.10;;;18.00;99.90;;;;;;5490252;26;20455;-65
2024/04/10 12:18:21;;;;;;;1.00;0.80;;;18.30;99.90;;;;;;5488611;26;20488;-66
2024/04/10 12:20:49;;;;;;;1.40;0.70;;;18.50;99.90;;;;;;5490238;26;20852;-65
2024/04/10 12:23:15;;;;;;;2.10;1.00;;;18.70;99.90;;;;;;5490267;26;20523;-70
2024/04/10 12:25:45;;;;;;;0.87;0.73;;;18.80;99.90;;;;;;5490223;26;20502;-67
2024/04/10 12:28:11;;;;;;;1.67;1.10;;;18.90;98.30;;;;;;5490190;26;20233;-67
2024/04/10 12:30:39;;;;;;;2.00;0.80;;;18.90;97.90;;;;;;5490189;26;20455;-67
2024/04/10 12:33:05;;;;;;;0.87;0.70;;;19.10;99.50;;;;;;5490125;26;20221;-67
2024/04/10 12:38:17;;;;;;;3.60;0.87;;;18.80;97.60;;;;;;5492692;26;20237;-68
2024/04/10 12:40:55;;;;;;;1.53;0.93;;;18.60;98.50;;;;;;5489896;26;20486;-68
2024/04/10 12:43:23;;;;;;;1.23;0.80;;;18.60;99.20;;;;;;5490063;26;20495;-64
2024/04/10 12:45:49;;;;;;;1.00;0.80;;;18.40;98.90;;;;;;5489793;26;20487;-65
2024/04/10 12:48:17;;;;;;;1.70;0.70;;;18.20;98.90;;;;;;5489875;26;20438;-64
2024/04/10 12:50:49;;;;;;;2.43;0.87;;;18.00;98.70;;;;;;5489864;26;20762;-69
2024/04/10 12:53:17;;;;;;;1.73;0.87;;;17.80;99.10;;;;;;5490010;26;20443;-69
2024/04/10 12:55:52;;;;;;;2.27;0.83;;;17.90;99.40;;;;;;5489165;26;20880;-69
2024/04/10 12:58:21;;;;;;;1.20;1.10;;;18.00;99.50;;;;;;5488948;26;20566;-69